Time;durP1;ratioP1;P1;durP2;ratioP2;P2;SDS_P1;SDS_P2;PMS_P1;PMS_P2;Temp;Humidity;BMP_temperature;BMP_pressure;BME280_temperature;BME280_humidity;BME280_pressure;Samples;Min_cycle;Max_cycle;Signal;HPM_P1;HPM_P2
2023/06/10 00:00:05;;;;;;;0.80;0.80;;;25.30;69.90;;;;;;6267731;28;20037;-45
2023/06/10 00:03:14;;;;;;;0.70;0.70;;;25.40;70.00;;;;;;6269878;28;20102;-43
2023/06/10 00:06:15;;;;;;;1.05;0.95;;;25.40;70.10;;;;;;6280008;28;20053;-46
2023/06/10 00:09:18;;;;;;;1.20;1.10;;;25.40;70.10;;;;;;6283282;28;20045;-47
2023/06/10 00:12:20;;;;;;;0.98;0.80;;;25.30;70.00;;;;;;6280386;28;20682;-48
2023/06/10 00:15:21;;;;;;;0.70;0.70;;;25.30;69.90;;;;;;6281058;28;20045;-45
2023/06/10 00:18:23;;;;;;;0.70;0.70;;;25.40;70.20;;;;;;6283662;28;20044;-46
2023/06/10 00:21:25;;;;;;;0.80;0.80;;;25.40;70.20;;;;;;6284636;28;20048;-48
2023/06/10 00:24:26;;;;;;;0.60;0.60;;;25.30;70.20;;;;;;6286538;28;20044;-49
2023/06/10 00:27:34;;;;;;;0.77;0.77;;;24.50;69.70;;;;;;6284941;28;20033;-44
2023/06/10 00:30:36;;;;;;;1.15;0.75;;;25.40;70.10;;;;;;6279973;28;20086;-45
2023/06/10 00:33:37;;;;;;;0.75;0.75;;;25.30;70.20;;;;;;6282609;28;20044;-43
2023/06/10 00:36:39;;;;;;;0.70;0.70;;;25.30;70.20;;;;;;6280189;28;20045;-46
2023/06/10 00:39:40;;;;;;;0.98;0.80;;;25.30;70.20;;;;;;6275232;28;20435;-45
2023/06/10 00:42:44;;;;;;;0.80;0.80;;;25.50;70.50;;;;;;6273640;28;20117;-49
2023/06/10 00:45:49;;;;;;;1.08;1.00;;;25.30;70.20;;;;;;6274427;28;20526;-42
2023/06/10 00:48:51;;;;;;;1.00;0.90;;;25.40;68.90;;;;;;6276618;28;20037;-46
2023/06/10 00:51:53;;;;;;;1.05;0.90;;;25.50;70.20;;;;;;6276226;28;20048;-43
2023/06/10 00:54:57;;;;;;;1.17;1.00;;;24.90;69.80;;;;;;6279130;28;20158;-49
2023/06/10 00:57:59;;;;;;;0.85;0.85;;;25.40;70.20;;;;;;6279479;28;20096;-45
2023/06/10 01:01:03;;;;;;;1.20;1.00;;;25.30;70.00;;;;;;6275080;28;20041;-48
2023/06/10 01:04:09;;;;;;;1.00;0.90;;;25.30;70.00;;;;;;6284126;28;20393;-46
2023/06/10 01:07:17;;;;;;;1.35;1.00;;;25.30;70.10;;;;;;6275931;28;20052;-48
2023/06/10 01:10:24;;;;;;;1.35;1.00;;;25.30;70.00;;;;;;6299412;22;20045;-47
2023/06/10 01:13:28;;;;;;;0.85;0.73;;;25.40;70.10;;;;;;6264981;28;20090;-44
2023/06/10 01:16:32;;;;;;;0.82;0.82;;;25.20;70.30;;;;;;6265420;28;20029;-51
2023/06/10 01:19:36;;;;;;;1.00;0.88;;;25.00;69.80;;;;;;6267898;28;20125;-48
2023/06/10 01:22:38;;;;;;;0.98;0.90;;;25.30;70.00;;;;;;6264703;28;20033;-48
2023/06/10 01:25:44;;;;;;;1.13;1.02;;;25.30;69.90;;;;;;6267622;28;20048;-51
2023/06/10 01:28:53;;;;;;;0.98;0.88;;;25.30;69.90;;;;;;6267501;28;20064;-51
2023/06/10 01:32:04;;;;;;;1.10;1.00;;;25.50;70.10;;;;;;6267249;28;20045;-51
2023/06/10 01:35:07;;;;;;;0.80;0.80;;;25.20;69.80;;;;;;6246995;28;20041;-51
2023/06/10 01:38:14;;;;;;;1.10;1.00;;;25.30;70.00;;;;;;6267836;28;20045;-49
2023/06/10 01:41:17;;;;;;;0.90;0.80;;;25.20;69.80;;;;;;6267640;28;20041;-46
2023/06/10 01:44:20;;;;;;;1.05;0.95;;;24.80;69.50;;;;;;6264603;28;20048;-49
2023/06/10 01:47:24;;;;;;;1.20;0.98;;;25.20;69.80;;;;;;6230236;28;20126;-49
2023/06/10 01:50:26;;;;;;;0.80;0.80;;;25.20;69.90;;;;;;6265388;28;20112;-48
2023/06/10 01:53:28;;;;;;;0.98;0.90;;;25.10;69.90;;;;;;6265598;28;20037;-52
2023/06/10 01:56:31;;;;;;;0.98;0.88;;;25.30;69.90;;;;;;6267607;28;20041;-51
2023/06/10 01:59:33;;;;;;;1.13;1.02;;;25.20;69.90;;;;;;6258537;28;20040;-49
2023/06/10 02:02:34;;;;;;;0.80;0.80;;;25.20;69.90;;;;;;6264827;28;20095;-45
2023/06/10 02:05:38;;;;;;;1.00;0.90;;;25.00;69.80;;;;;;6265406;28;20041;-48
2023/06/10 02:08:42;;;;;;;1.05;0.95;;;25.20;69.80;;;;;;6261111;28;20396;-49
2023/06/10 02:11:43;;;;;;;1.38;0.90;;;25.40;70.00;;;;;;6264253;28;20048;-48
2023/06/10 02:14:45;;;;;;;1.05;0.95;;;25.20;69.80;;;;;;6259775;28;20036;-49
2023/06/10 02:17:49;;;;;;;1.35;0.80;;;25.30;69.90;;;;;;6264574;28;20041;-48
2023/06/10 02:20:52;;;;;;;0.75;0.68;;;25.30;69.90;;;;;;6264583;28;20045;-47
2023/06/10 02:23:54;;;;;;;1.17;1.08;;;25.10;69.70;;;;;;6265286;28;20049;-52
2023/06/10 02:26:56;;;;;;;1.00;0.90;;;25.30;69.80;;;;;;6266566;28;20067;-48
2023/06/10 02:29:57;;;;;;;0.88;0.85;;;25.30;69.90;;;;;;6266877;28;20033;-48
2023/06/10 02:33:01;;;;;;;1.05;0.93;;;25.30;69.90;;;;;;6264942;28;20128;-51
2023/06/10 02:36:03;;;;;;;1.08;0.93;;;24.90;69.70;;;;;;6266347;28;20037;-49
2023/06/10 02:39:06;;;;;;;0.82;0.80;;;25.30;69.80;;;;;;6266102;28;20117;-45
2023/06/10 02:42:09;;;;;;;0.98;0.88;;;25.20;70.00;;;;;;6265469;28;20238;-49
2023/06/10 02:45:10;;;;;;;0.90;0.90;;;25.30;69.90;;;;;;6266444;28;20499;-47
2023/06/10 02:48:15;;;;;;;0.85;0.80;;;25.30;69.90;;;;;;6265740;28;20124;-46
2023/06/10 02:51:17;;;;;;;0.90;0.90;;;25.20;69.80;;;;;;6263268;28;20060;-48
2023/06/10 02:54:23;;;;;;;0.95;0.90;;;25.20;70.00;;;;;;6263623;28;20086;-48
2023/06/10 02:57:25;;;;;;;0.73;0.68;;;25.20;69.80;;;;;;6265182;28;20475;-47
2023/06/10 03:00:30;;;;;;;0.90;0.80;;;25.10;69.80;;;;;;6265630;28;20522;-50
2023/06/10 03:03:33;;;;;;;1.00;0.90;;;24.80;69.60;;;;;;6265791;28;20107;-49
2023/06/10 03:06:45;;;;;;;0.93;0.80;;;25.20;69.80;;;;;;6232305;28;20041;-48
2023/06/10 03:09:54;;;;;;;0.93;0.88;;;25.10;69.80;;;;;;6248214;28;20068;-50
2023/06/10 03:12:56;;;;;;;0.98;0.88;;;25.10;69.80;;;;;;6265682;28;20044;-50
2023/06/10 03:15:59;;;;;;;1.17;1.08;;;25.00;69.70;;;;;;6263886;28;20495;-48
2023/06/10 03:19:02;;;;;;;0.80;0.80;;;24.80;69.60;;;;;;6247018;28;20037;-47
2023/06/10 03:22:09;;;;;;;0.95;0.85;;;24.80;69.60;;;;;;6264607;28;20037;-51
2023/06/10 03:25:14;;;;;;;0.98;0.90;;;25.10;69.70;;;;;;6248225;28;20037;-48
2023/06/10 03:28:20;;;;;;;0.82;0.82;;;25.00;69.60;;;;;;6265218;28;20044;-52
2023/06/10 03:31:24;;;;;;;0.90;0.85;;;25.20;70.00;;;;;;6262763;28;20049;-52
2023/06/10 03:34:28;;;;;;;1.00;0.80;;;25.10;69.90;;;;;;6265458;28;20048;-49
2023/06/10 03:37:30;;;;;;;0.70;0.70;;;25.20;69.80;;;;;;6247628;28;20036;-48
2023/06/10 03:40:32;;;;;;;1.00;0.88;;;24.70;69.50;;;;;;6264857;28;20033;-47
2023/06/10 03:43:34;;;;;;;0.80;0.80;;;25.10;69.70;;;;;;6262172;28;20090;-47
2023/06/10 03:46:35;;;;;;;1.05;0.95;;;25.20;69.80;;;;;;6263921;28;20033;-46
2023/06/10 03:49:38;;;;;;;1.00;0.90;;;25.20;69.90;;;;;;6265235;28;20033;-49
2023/06/10 03:52:42;;;;;;;1.02;0.80;;;24.90;69.60;;;;;;6262908;28;20052;-50
2023/06/10 03:55:45;;;;;;;1.15;1.05;;;25.10;69.80;;;;;;6263794;28;20329;-49
2023/06/10 03:58:49;;;;;;;0.80;0.80;;;25.10;69.50;;;;;;6264378;28;20037;-49
2023/06/10 04:01:51;;;;;;;1.13;1.02;;;24.70;69.50;;;;;;6264103;28;20041;-50
2023/06/10 04:04:52;;;;;;;0.93;0.80;;;25.10;69.70;;;;;;6264780;28;20045;-47
2023/06/10 04:07:54;;;;;;;0.73;0.70;;;25.00;69.70;;;;;;6264763;28;20515;-49
2023/06/10 04:10:57;;;;;;;1.00;0.90;;;24.70;69.50;;;;;;6264376;28;20496;-51
2023/06/10 04:13:59;;;;;;;0.88;0.82;;;25.00;69.60;;;;;;6264511;28;20048;-49
2023/06/10 04:17:02;;;;;;;0.90;0.80;;;24.90;69.60;;;;;;6264238;28;20094;-46
2023/06/10 04:20:07;;;;;;;0.80;0.80;;;24.60;69.40;;;;;;6264108;28;20349;-51
2023/06/10 04:23:11;;;;;;;1.15;1.05;;;24.60;69.30;;;;;;6263927;28;20230;-50
2023/06/10 04:26:15;;;;;;;0.95;0.82;;;25.10;69.90;;;;;;6263634;28;20040;-49
2023/06/10 04:29:17;;;;;;;1.10;1.00;;;24.90;69.60;;;;;;6265459;28;20040;-48
2023/06/10 04:32:19;;;;;;;1.17;0.90;;;24.60;69.50;;;;;;6264682;28;20571;-49
2023/06/10 04:35:21;;;;;;;1.15;1.05;;;24.90;69.60;;;;;;6265053;28;20041;-49
2023/06/10 04:38:24;;;;;;;0.80;0.80;;;25.00;69.70;;;;;;6264929;28;20091;-51
2023/06/10 04:41:28;;;;;;;1.27;1.00;;;25.10;69.70;;;;;;6264462;28;20044;-52
2023/06/10 04:44:31;;;;;;;1.05;0.95;;;24.80;69.60;;;;;;6264774;28;20478;-48
2023/06/10 04:47:33;;;;;;;1.10;1.00;;;25.10;68.20;;;;;;6260284;28;20047;-47
2023/06/10 04:50:36;;;;;;;1.27;1.17;;;25.00;69.80;;;;;;6264883;28;20033;-50
2023/06/10 04:53:38;;;;;;;1.42;1.30;;;25.00;69.50;;;;;;6267246;28;20555;-48
2023/06/10 04:56:40;;;;;;;1.08;0.98;;;24.90;69.70;;;;;;6266235;28;20037;-48
2023/06/10 04:59:43;;;;;;;1.38;1.27;;;24.90;69.60;;;;;;6267300;28;20057;-48
2023/06/10 05:02:44;;;;;;;1.15;1.05;;;24.80;69.70;;;;;;6267412;28;20488;-50
2023/06/10 05:05:46;;;;;;;1.45;1.13;;;25.10;69.70;;;;;;6267539;28;20048;-48
2023/06/10 05:08:47;;;;;;;1.00;0.90;;;24.70;69.60;;;;;;6268009;28;20507;-49
2023/06/10 05:11:50;;;;;;;1.10;1.00;;;24.70;69.60;;;;;;6267560;28;20048;-51
2023/06/10 05:14:52;;;;;;;1.20;1.10;;;25.20;70.00;;;;;;6267462;28;20112;-51
2023/06/10 05:17:56;;;;;;;0.98;0.90;;;25.00;69.80;;;;;;6267528;28;20535;-50
2023/06/10 05:20:58;;;;;;;1.30;1.20;;;25.00;69.80;;;;;;6267785;28;20044;-48
2023/06/10 05:24:02;;;;;;;1.33;1.23;;;25.00;70.40;;;;;;6267583;28;20041;-49
2023/06/10 05:27:06;;;;;;;1.02;1.00;;;25.10;69.90;;;;;;6267539;28;20069;-45
2023/06/10 05:30:09;;;;;;;1.23;1.13;;;24.70;69.50;;;;;;6267486;28;20369;-47
2023/06/10 05:33:10;;;;;;;1.23;1.13;;;24.90;69.70;;;;;;6267046;28;20416;-47
2023/06/10 05:36:12;;;;;;;0.85;0.85;;;24.90;70.00;;;;;;6267132;28;20076;-52
2023/06/10 05:39:13;;;;;;;1.20;1.10;;;24.90;69.90;;;;;;6267244;28;20499;-50
2023/06/10 05:42:15;;;;;;;1.25;1.15;;;24.70;69.70;;;;;;6266706;28;20041;-47
2023/06/10 05:45:17;;;;;;;1.05;0.95;;;24.90;69.80;;;;;;6266814;28;20427;-50
2023/06/10 05:48:19;;;;;;;1.02;1.00;;;25.00;70.00;;;;;;6266417;28;20403;-50
2023/06/10 05:51:21;;;;;;;1.33;1.20;;;25.00;69.90;;;;;;6266618;28;20507;-48
2023/06/10 05:54:22;;;;;;;1.30;1.20;;;24.90;69.90;;;;;;6267123;28;20503;-50
2023/06/10 05:57:24;;;;;;;1.17;1.08;;;24.70;69.90;;;;;;6266473;28;20061;-52
2023/06/10 06:00:26;;;;;;;1.15;1.05;;;25.10;69.90;;;;;;6262770;28;20523;-51
2023/06/10 06:03:28;;;;;;;1.30;1.20;;;25.00;70.70;;;;;;6264284;28;20504;-50
2023/06/10 06:06:30;;;;;;;1.00;0.90;;;24.60;69.80;;;;;;6264195;28;20419;-49
2023/06/10 06:09:31;;;;;;;1.02;1.02;;;24.90;70.00;;;;;;6266233;28;20507;-51
2023/06/10 06:12:33;;;;;;;1.20;1.10;;;25.00;70.00;;;;;;6263021;28;20519;-48
2023/06/10 06:15:35;;;;;;;1.13;1.02;;;25.00;70.10;;;;;;6264761;28;20454;-49
2023/06/10 06:18:36;;;;;;;1.23;1.13;;;24.90;70.00;;;;;;6264807;28;20036;-50
2023/06/10 06:21:38;;;;;;;1.20;1.10;;;25.00;70.10;;;;;;6263627;28;20514;-50
2023/06/10 06:24:39;;;;;;;1.30;1.20;;;24.90;70.10;;;;;;6261388;28;20052;-51
2023/06/10 06:27:41;;;;;;;1.48;1.38;;;24.70;70.00;;;;;;6264103;28;20519;-49
2023/06/10 06:30:43;;;;;;;1.20;1.10;;;24.80;70.00;;;;;;6263273;28;20033;-48
2023/06/10 06:33:44;;;;;;;1.08;1.00;;;25.00;70.20;;;;;;6263221;28;20420;-48
2023/06/10 06:36:46;;;;;;;1.40;1.30;;;25.10;70.30;;;;;;6259307;28;20482;-48
2023/06/10 06:39:47;;;;;;;1.20;1.10;;;24.70;70.20;;;;;;6260661;28;20033;-49
2023/06/10 06:42:49;;;;;;;1.35;1.25;;;25.00;70.30;;;;;;6245127;28;20082;-47
2023/06/10 06:46:10;;;;;;;1.50;1.40;;;24.90;70.30;;;;;;6249550;28;20052;-49
2023/06/10 06:49:12;;;;;;;1.67;1.58;;;25.10;69.90;;;;;;6251590;28;20094;-48
2023/06/10 06:52:14;;;;;;;1.45;1.35;;;25.00;70.40;;;;;;6247446;28;20052;-47
2023/06/10 06:55:16;;;;;;;1.40;1.30;;;25.00;70.20;;;;;;6252015;28;20044;-45
2023/06/10 06:58:18;;;;;;;1.35;1.25;;;25.00;70.40;;;;;;6248606;28;20037;-48
2023/06/10 07:01:22;;;;;;;1.40;1.30;;;24.90;70.40;;;;;;6248064;28;20040;-50
2023/06/10 07:04:23;;;;;;;1.40;1.30;;;24.90;70.60;;;;;;6250522;28;20243;-50
2023/06/10 07:07:25;;;;;;;1.20;1.10;;;25.00;70.30;;;;;;6253512;28;20043;-48
2023/06/10 07:10:27;;;;;;;1.30;1.20;;;24.80;70.70;;;;;;6247134;28;20076;-51
2023/06/10 07:13:29;;;;;;;1.10;1.00;;;25.00;70.30;;;;;;6230796;28;20033;-52
2023/06/10 07:16:31;;;;;;;1.30;1.20;;;24.70;70.20;;;;;;6251168;28;20055;-50
2023/06/10 07:19:32;;;;;;;1.30;1.20;;;24.60;70.20;;;;;;6249705;28;20044;-51
2023/06/10 07:22:34;;;;;;;1.33;1.23;;;25.00;70.60;;;;;;6253915;28;20506;-48
2023/06/10 07:25:35;;;;;;;1.15;1.05;;;24.70;70.30;;;;;;6253740;28;20048;-48
2023/06/10 07:28:38;;;;;;;1.52;1.42;;;24.90;70.40;;;;;;6250527;28;20110;-51
2023/06/10 07:31:41;;;;;;;1.38;1.27;;;24.90;70.30;;;;;;6250618;28;20045;-51
2023/06/10 07:34:43;;;;;;;1.40;1.30;;;24.80;70.40;;;;;;6246069;28;20045;-52
2023/06/10 07:37:45;;;;;;;1.35;1.25;;;25.00;71.10;;;;;;6247243;28;20041;-49
2023/06/10 07:40:46;;;;;;;1.40;1.30;;;24.90;70.70;;;;;;6254559;28;20261;-52
2023/06/10 07:43:54;;;;;;;1.50;1.40;;;24.90;70.70;;;;;;6249612;28;20079;-52
2023/06/10 07:46:55;;;;;;;1.60;1.50;;;25.00;70.70;;;;;;6253730;28;20045;-50
2023/06/10 07:49:57;;;;;;;1.30;1.20;;;25.00;70.80;;;;;;6252275;28;20555;-51
2023/06/10 07:53:00;;;;;;;1.60;1.50;;;25.00;70.90;;;;;;6254726;28;20095;-46
2023/06/10 07:56:01;;;;;;;1.50;1.40;;;23.80;68.50;;;;;;6248970;28;20069;-52
2023/06/10 07:59:03;;;;;;;1.48;1.38;;;25.10;70.80;;;;;;6250967;28;20054;-47
2023/06/10 08:02:05;;;;;;;1.33;1.23;;;24.90;71.00;;;;;;6253716;28;20721;-49
2023/06/10 08:05:07;;;;;;;1.33;1.23;;;25.10;70.90;;;;;;6248464;28;20048;-52
2023/06/10 08:08:09;;;;;;;1.50;1.30;;;24.90;70.70;;;;;;6254036;28;20067;-53
2023/06/10 08:11:11;;;;;;;1.38;1.27;;;25.50;71.30;;;;;;6248623;28;20044;-50
2023/06/10 08:14:13;;;;;;;1.50;1.40;;;25.10;70.80;;;;;;6248671;28;20045;-51
2023/06/10 08:17:15;;;;;;;1.58;1.48;;;25.00;70.80;;;;;;6252836;28;20070;-50
2023/06/10 08:20:17;;;;;;;1.40;1.30;;;24.90;71.10;;;;;;6251201;28;20033;-47
2023/06/10 08:23:20;;;;;;;1.60;1.50;;;25.20;70.80;;;;;;6234741;28;20029;-51
2023/06/10 08:26:22;;;;;;;1.27;1.17;;;24.50;70.60;;;;;;6238916;28;20043;-49
2023/06/10 08:29:25;;;;;;;1.70;1.60;;;25.00;70.90;;;;;;6257068;28;20041;-51
2023/06/10 08:32:27;;;;;;;1.50;1.40;;;25.00;70.80;;;;;;6254565;28;20444;-50
2023/06/10 08:35:29;;;;;;;1.63;1.45;;;25.00;71.00;;;;;;6256748;28;20036;-50
2023/06/10 08:38:30;;;;;;;1.45;1.35;;;24.90;70.90;;;;;;6256254;28;20037;-50
2023/06/10 08:41:37;;;;;;;1.60;1.50;;;24.70;71.40;;;;;;6252914;28;20040;-52
2023/06/10 08:44:40;;;;;;;1.50;1.40;;;25.20;71.20;;;;;;6256149;28;20041;-51
2023/06/10 08:47:45;;;;;;;1.45;1.35;;;25.20;71.30;;;;;;6257851;28;20083;-49
2023/06/10 08:50:50;;;;;;;1.60;1.50;;;24.70;70.90;;;;;;6255529;28;20041;-53
2023/06/10 08:54:02;;;;;;;1.50;1.40;;;25.20;71.20;;;;;;6253648;28;20052;-53
2023/06/10 08:57:06;;;;;;;1.50;1.40;;;25.20;71.20;;;;;;6255745;28;20045;-48
2023/06/10 09:00:09;;;;;;;1.40;1.30;;;25.20;71.20;;;;;;6257668;28;20178;-50
2023/06/10 09:03:12;;;;;;;1.40;1.30;;;24.90;71.00;;;;;;6254670;28;20090;-50
2023/06/10 09:06:13;;;;;;;1.20;1.10;;;25.10;71.10;;;;;;6242454;28;20041;-49
2023/06/10 09:09:15;;;;;;;1.45;1.35;;;25.10;71.10;;;;;;6255023;28;20473;-51
2023/06/10 09:12:16;;;;;;;1.20;1.10;;;25.30;71.40;;;;;;6254591;28;20037;-50
2023/06/10 09:15:19;;;;;;;1.30;1.20;;;25.30;71.20;;;;;;6256027;28;20116;-49
2023/06/10 09:18:20;;;;;;;1.60;1.50;;;25.10;71.10;;;;;;6256766;28;20037;-54
2023/06/10 09:21:23;;;;;;;1.48;1.38;;;25.20;71.10;;;;;;6258490;28;20514;-51
2023/06/10 09:24:25;;;;;;;1.25;1.15;;;25.20;71.00;;;;;;6234961;28;20051;-52
2023/06/10 09:27:31;;;;;;;1.65;1.55;;;25.30;71.10;;;;;;6242490;28;20044;-56
2023/06/10 09:30:34;;;;;;;1.17;1.08;;;25.20;70.90;;;;;;6259509;28;20222;-51
2023/06/10 09:33:39;;;;;;;1.40;1.30;;;25.30;71.00;;;;;;6238117;28;20065;-51
2023/06/10 09:36:41;;;;;;;1.27;1.17;;;25.20;71.20;;;;;;6235528;28;20037;-51
2023/06/10 09:39:43;;;;;;;1.40;1.30;;;25.30;70.90;;;;;;6255839;28;20064;-53
2023/06/10 09:42:44;;;;;;;1.25;1.15;;;25.10;70.90;;;;;;6255051;28;20065;-50
2023/06/10 09:45:49;;;;;;;1.40;1.30;;;25.40;70.90;;;;;;6252387;28;20095;-51
2023/06/10 09:48:51;;;;;;;1.85;1.40;;;25.30;70.80;;;;;;6255378;28;20045;-48
2023/06/10 09:51:54;;;;;;;1.30;1.20;;;25.00;70.70;;;;;;6256796;28;20037;-50
2023/06/10 09:55:02;;;;;;;1.25;1.15;;;25.30;70.70;;;;;;6236602;28;20044;-47
2023/06/10 09:58:04;;;;;;;1.45;1.35;;;24.90;69.40;;;;;;6252143;28;20108;-53
2023/06/10 10:01:06;;;;;;;1.27;1.17;;;24.90;70.90;;;;;;6239921;28;20492;-50
2023/06/10 10:04:08;;;;;;;1.30;1.20;;;25.20;70.50;;;;;;6254558;28;20085;-53
2023/06/10 10:07:10;;;;;;;1.40;1.30;;;24.70;71.00;;;;;;6251551;28;20048;-51
2023/06/10 10:10:12;;;;;;;1.40;1.30;;;25.40;70.80;;;;;;6252301;28;20044;-54
2023/06/10 10:13:13;;;;;;;1.40;1.30;;;25.40;70.70;;;;;;6257765;28;20410;-50
2023/06/10 10:16:20;;;;;;;1.48;1.38;;;25.40;70.70;;;;;;6255125;28;20041;-51
2023/06/10 10:19:28;;;;;;;1.55;1.45;;;25.40;70.50;;;;;;6238414;28;20462;-51
2023/06/10 10:22:35;;;;;;;1.33;1.23;;;25.50;70.70;;;;;;6256378;28;20033;-52
2023/06/10 10:25:40;;;;;;;1.30;1.20;;;25.20;70.30;;;;;;6258332;28;20041;-52
2023/06/10 10:28:45;;;;;;;1.50;1.40;;;25.50;70.50;;;;;;6234436;28;20041;-53
2023/06/10 10:31:50;;;;;;;1.30;1.20;;;25.40;70.40;;;;;;6253643;28;20040;-51
2023/06/10 10:34:59;;;;;;;1.35;1.25;;;24.90;70.00;;;;;;6234192;28;20041;-51
2023/06/10 10:38:01;;;;;;;1.27;1.17;;;25.50;70.50;;;;;;6232429;28;20037;-52
2023/06/10 10:41:04;;;;;;;1.58;1.48;;;25.30;70.70;;;;;;6249814;28;20044;-51
2023/06/10 10:44:07;;;;;;;1.52;1.42;;;25.50;70.80;;;;;;6255545;28;20100;-49
2023/06/10 10:47:11;;;;;;;1.50;1.40;;;25.10;70.10;;;;;;6253586;28;20048;-51
2023/06/10 10:50:15;;;;;;;1.58;1.48;;;25.50;70.40;;;;;;6250630;28;20691;-51
2023/06/10 10:53:20;;;;;;;1.35;1.25;;;25.30;70.20;;;;;;6253205;28;20040;-48
2023/06/10 10:56:30;;;;;;;1.50;1.40;;;25.50;70.40;;;;;;6253940;28;20067;-50
2023/06/10 10:59:44;;;;;;;1.60;1.50;;;25.50;70.40;;;;;;6254377;28;20045;-51
2023/06/10 11:02:49;;;;;;;1.58;1.48;;;25.50;70.30;;;;;;6234528;28;20037;-52
2023/06/10 11:05:51;;;;;;;1.30;1.20;;;25.50;70.40;;;;;;6255303;28;20048;-51
2023/06/10 11:08:53;;;;;;;1.50;1.40;;;25.50;70.80;;;;;;6256537;28;20416;-52
2023/06/10 11:11:57;;;;;;;1.40;1.30;;;25.40;70.40;;;;;;6251729;28;20033;-54
2023/06/10 11:15:03;;;;;;;1.25;1.15;;;25.40;70.20;;;;;;6241398;28;20040;-51
2023/06/10 11:18:22;;;;;;;1.75;1.20;;;25.10;70.00;;;;;;6258666;28;20407;-52
2023/06/10 11:21:25;;;;;;;1.38;1.27;;;25.40;70.50;;;;;;6253298;28;20059;-49
2023/06/10 11:24:30;;;;;;;1.50;1.40;;;25.40;70.40;;;;;;6256504;28;20045;-49
2023/06/10 11:27:39;;;;;;;1.48;1.38;;;25.30;70.50;;;;;;6259066;28;20037;-49
2023/06/10 11:30:44;;;;;;;1.30;1.20;;;25.40;70.80;;;;;;6262641;28;20072;-49
2023/06/10 11:33:48;;;;;;;1.23;1.13;;;25.50;70.50;;;;;;6263984;28;20037;-49
2023/06/10 11:36:55;;;;;;;1.45;1.35;;;25.30;70.40;;;;;;6248609;28;20495;-52
2023/06/10 11:39:59;;;;;;;1.40;1.30;;;25.50;70.80;;;;;;6265387;28;20147;-51
2023/06/10 11:43:01;;;;;;;1.48;1.38;;;25.50;70.70;;;;;;6265749;28;20639;-49
2023/06/10 11:46:02;;;;;;;1.60;1.42;;;25.60;70.80;;;;;;6265403;28;20044;-52
2023/06/10 11:49:08;;;;;;;1.40;1.30;;;25.40;70.80;;;;;;6264159;28;20393;-51
2023/06/10 11:52:12;;;;;;;1.40;1.30;;;25.50;70.80;;;;;;6242216;28;20496;-51
2023/06/10 11:55:14;;;;;;;1.20;1.10;;;25.50;69.90;;;;;;6257108;28;20111;-50
2023/06/10 11:58:16;;;;;;;1.75;1.50;;;25.30;71.00;;;;;;6254470;28;20077;-49
2023/06/10 12:01:21;;;;;;;1.40;1.30;;;25.50;71.50;;;;;;6251815;28;20086;-51
2023/06/10 12:04:31;;;;;;;1.42;1.33;;;25.50;71.60;;;;;;6253710;28;20033;-50
2023/06/10 12:07:33;;;;;;;1.73;1.40;;;25.30;71.20;;;;;;6255066;28;20052;-52
2023/06/10 12:10:40;;;;;;;1.60;1.50;;;25.50;71.60;;;;;;6254919;28;20044;-49
2023/06/10 12:13:48;;;;;;;1.38;1.27;;;25.50;71.60;;;;;;6239839;28;20048;-50
2023/06/10 12:16:52;;;;;;;1.50;1.40;;;25.50;71.80;;;;;;6255002;28;20037;-52
2023/06/10 12:19:56;;;;;;;1.48;1.38;;;25.60;72.20;;;;;;6256413;28;20047;-48
2023/06/10 12:22:59;;;;;;;1.58;1.48;;;25.50;71.90;;;;;;6256938;28;20416;-53
2023/06/10 12:26:01;;;;;;;1.45;1.35;;;25.50;71.90;;;;;;6256415;28;20443;-53
2023/06/10 12:29:02;;;;;;;1.45;1.35;;;25.60;72.10;;;;;;6251386;28;20459;-48
2023/06/10 12:32:05;;;;;;;1.30;1.20;;;25.80;72.20;;;;;;6238860;28;20033;-53
2023/06/10 12:35:14;;;;;;;1.55;1.45;;;25.40;72.30;;;;;;6257997;28;20045;-49
2023/06/10 12:38:22;;;;;;;1.30;1.20;;;25.70;72.50;;;;;;6238763;28;20476;-51
2023/06/10 12:41:23;;;;;;;1.60;1.50;;;25.60;72.20;;;;;;6222339;28;20431;-49
2023/06/10 12:44:33;;;;;;;1.60;1.50;;;25.60;72.20;;;;;;6258150;28;20143;-51
2023/06/10 12:47:38;;;;;;;1.65;1.55;;;25.50;72.00;;;;;;6237915;28;20047;-51
2023/06/10 12:50:42;;;;;;;1.65;1.55;;;25.50;71.90;;;;;;6249729;28;20041;-50
2023/06/10 12:53:44;;;;;;;1.63;1.50;;;25.10;71.70;;;;;;6237843;28;20045;-51
2023/06/10 12:56:48;;;;;;;1.30;1.20;;;25.70;72.30;;;;;;6254599;28;20392;-53
2023/06/10 12:59:52;;;;;;;1.70;1.60;;;25.50;72.20;;;;;;6256563;28;20515;-51
2023/06/10 13:02:53;;;;;;;1.40;1.30;;;25.80;72.70;;;;;;6236726;28;20499;-49
2023/06/10 13:05:56;;;;;;;1.45;1.35;;;25.70;72.40;;;;;;6253833;28;20044;-50
2023/06/10 13:08:58;;;;;;;1.42;1.33;;;25.80;72.30;;;;;;6254612;28;20037;-52
2023/06/10 13:12:00;;;;;;;1.65;1.55;;;25.70;72.30;;;;;;6249920;28;20052;-50
2023/06/10 13:15:01;;;;;;;1.60;1.50;;;25.70;72.10;;;;;;6258346;28;20037;-50
2023/06/10 13:18:12;;;;;;;1.88;1.77;;;25.30;71.70;;;;;;6257139;28;20152;-53
2023/06/10 13:21:15;;;;;;;1.50;1.40;;;25.80;71.80;;;;;;6253020;28;20519;-49
2023/06/10 13:24:16;;;;;;;1.98;1.42;;;25.70;71.80;;;;;;6257103;28;20044;-54
2023/06/10 13:27:18;;;;;;;1.38;1.27;;;25.80;71.10;;;;;;6254157;28;20150;-51
2023/06/10 13:30:19;;;;;;;1.60;1.50;;;25.90;70.90;;;;;;6247621;28;20047;-48
2023/06/10 13:33:22;;;;;;;1.65;1.55;;;25.80;70.60;;;;;;6253905;28;20045;-50
2023/06/10 13:36:26;;;;;;;1.60;1.50;;;25.40;70.00;;;;;;6256094;28;20052;-54
2023/06/10 13:39:29;;;;;;;1.73;1.63;;;25.80;70.00;;;;;;6256065;28;20412;-51
2023/06/10 13:42:30;;;;;;;1.70;1.60;;;25.90;70.00;;;;;;6253724;28;20044;-45
2023/06/10 13:45:32;;;;;;;1.42;1.33;;;25.60;69.60;;;;;;6252206;28;20045;-50
2023/06/10 13:48:35;;;;;;;1.50;1.40;;;25.50;69.70;;;;;;6255059;28;20041;-50
2023/06/10 13:51:40;;;;;;;1.50;1.40;;;25.70;70.10;;;;;;6253684;28;20037;-50
2023/06/10 13:54:41;;;;;;;1.70;1.60;;;25.70;70.00;;;;;;6252682;28;20049;-52
2023/06/10 13:57:43;;;;;;;1.67;1.58;;;25.70;69.80;;;;;;6254261;28;20098;-46
2023/06/10 14:00:45;;;;;;;1.70;1.60;;;25.80;70.00;;;;;;6255018;28;20052;-50
2023/06/10 14:03:50;;;;;;;1.55;1.45;;;26.60;70.90;;;;;;6251653;28;20075;-50
2023/06/10 14:06:52;;;;;;;1.63;1.52;;;25.80;69.00;;;;;;6253475;28;20345;-52
2023/06/10 14:09:54;;;;;;;1.30;1.20;;;25.60;69.90;;;;;;6255825;28;20041;-48
2023/06/10 14:12:55;;;;;;;1.58;1.40;;;25.70;70.10;;;;;;6250371;28;20538;-50
2023/06/10 14:15:57;;;;;;;1.60;1.50;;;25.50;70.00;;;;;;6250683;28;20491;-54
2023/06/10 14:19:00;;;;;;;1.60;1.50;;;25.50;70.10;;;;;;6254860;28;20037;-51
2023/06/10 14:22:03;;;;;;;1.20;1.10;;;25.40;70.00;;;;;;6254813;28;20167;-52
2023/06/10 14:25:08;;;;;;;1.60;1.33;;;25.70;70.30;;;;;;6256808;28;20341;-54
2023/06/10 14:28:10;;;;;;;1.17;1.08;;;25.70;70.30;;;;;;6254605;28;20108;-51
2023/06/10 14:31:12;;;;;;;1.48;1.38;;;25.50;70.40;;;;;;6255607;28;20037;-51
2023/06/10 14:34:13;;;;;;;1.40;1.30;;;25.30;70.20;;;;;;6255729;28;20044;-53
2023/06/10 14:37:15;;;;;;;1.50;1.40;;;25.70;70.60;;;;;;6248736;28;20700;-49
2023/06/10 14:40:21;;;;;;;1.40;1.30;;;25.60;70.50;;;;;;6253542;28;20041;-49
2023/06/10 14:43:22;;;;;;;1.23;1.13;;;25.60;70.50;;;;;;6249011;28;20033;-49
2023/06/10 14:46:24;;;;;;;1.48;1.38;;;25.70;70.70;;;;;;6251400;28;20048;-50
2023/06/10 14:49:28;;;;;;;1.40;1.30;;;25.60;71.10;;;;;;6251828;28;20623;-52
2023/06/10 14:52:30;;;;;;;1.60;1.50;;;25.70;70.70;;;;;;6245553;28;20076;-52
2023/06/10 14:55:31;;;;;;;1.38;1.27;;;25.30;70.50;;;;;;6248851;28;20040;-50
2023/06/10 14:58:33;;;;;;;1.38;1.27;;;25.50;70.70;;;;;;6248862;28;20118;-47
2023/06/10 15:01:34;;;;;;;1.30;1.20;;;25.70;71.20;;;;;;6252834;28;20044;-52
2023/06/10 15:04:36;;;;;;;1.48;1.38;;;25.20;70.20;;;;;;6255842;28;20039;-52
2023/06/10 15:07:38;;;;;;;1.52;1.42;;;25.30;70.40;;;;;;6251024;28;20098;-53
2023/06/10 15:10:40;;;;;;;1.60;1.50;;;25.40;70.30;;;;;;6252174;28;20068;-49
2023/06/10 15:13:41;;;;;;;1.60;1.30;;;25.70;70.70;;;;;;6252439;28;20045;-50
2023/06/10 15:16:44;;;;;;;12.98;1.75;;;25.60;70.40;;;;;;6254207;28;20041;-51
2023/06/10 15:19:46;;;;;;;1.50;1.40;;;25.70;70.50;;;;;;6252188;28;20071;-51
2023/06/10 15:22:48;;;;;;;1.15;1.05;;;25.60;70.20;;;;;;6254947;28;20450;-50
2023/06/10 15:25:49;;;;;;;1.15;1.05;;;25.30;70.00;;;;;;6256961;28;20381;-47
2023/06/10 15:28:51;;;;;;;1.30;1.20;;;25.70;70.10;;;;;;6253072;28;20487;-53
2023/06/10 15:31:52;;;;;;;1.30;1.20;;;25.30;69.70;;;;;;6253270;28;20037;-51
2023/06/10 15:34:53;;;;;;;1.60;1.48;;;25.40;69.70;;;;;;6256461;28;20455;-48
2023/06/10 15:37:56;;;;;;;1.50;1.40;;;25.70;69.90;;;;;;6250285;28;20041;-51
2023/06/10 15:40:57;;;;;;;1.40;1.30;;;25.70;69.70;;;;;;6250353;28;20044;-50
2023/06/10 15:43:59;;;;;;;1.50;1.40;;;25.80;69.90;;;;;;6253733;28;20044;-49
2023/06/10 15:47:01;;;;;;;1.40;1.30;;;25.70;69.60;;;;;;6263302;28;20356;-53
2023/06/10 15:50:05;;;;;;;1.48;1.10;;;25.90;69.80;;;;;;6264727;28;20040;-53
2023/06/10 15:53:08;;;;;;;0.93;0.93;;;25.70;69.50;;;;;;6264780;28;20416;-51